createdAt,value
2023-05-25T00:00:11.355Z,102159.53
2023-05-25T00:02:39.752Z,102155.06
2023-05-25T00:05:08.972Z,102148.88
2023-05-25T00:07:35.604Z,102160.44
2023-05-25T00:10:02.117Z,102163.34
2023-05-25T00:12:28.715Z,102168.75
2023-05-25T00:14:55.226Z,102168.91
2023-05-25T00:17:21.921Z,102161.38
2023-05-25T00:19:48.749Z,102161.28
2023-05-25T00:22:15.336Z,102164.00
2023-05-25T00:24:41.800Z,102164.75
2023-05-25T00:27:08.439Z,102167.63
2023-05-25T00:29:38.003Z,102167.63
2023-05-25T00:32:05.120Z,102179.16
2023-05-25T00:34:31.858Z,102177.22
2023-05-25T00:36:58.733Z,102174.25
2023-05-25T00:39:25.210Z,102178.81
2023-05-25T00:41:51.703Z,102179.09
2023-05-25T00:44:21.814Z,102179.59
2023-05-25T00:46:51.609Z,102172.25
2023-05-25T00:49:20.199Z,102169.34
2023-05-25T00:51:47.984Z,102169.63
2023-05-25T00:54:16.018Z,102170.19
2023-05-25T00:56:47.008Z,102161.88
2023-05-25T00:59:17.953Z,102167.06
2023-05-25T01:01:45.745Z,102169.91
2023-05-25T01:04:15.148Z,102167.94
2023-05-25T01:06:44.537Z,102173.47
2023-05-25T01:09:12.151Z,102174.47
2023-05-25T01:11:40.369Z,102178.56
2023-05-25T01:14:06.947Z,102179.53
2023-05-25T01:16:33.790Z,102184.47
2023-05-25T01:19:00.474Z,102183.09
2023-05-25T01:21:33.745Z,102177.56
2023-05-25T01:24:12.062Z,102167.81
2023-05-25T01:26:49.045Z,102175.03
2023-05-25T01:29:17.894Z,102172.69
2023-05-25T01:31:45.741Z,102165.03
2023-05-25T01:34:13.683Z,102164.72
2023-05-25T01:36:40.333Z,102178.50
2023-05-25T01:39:07.687Z,102185.81
2023-05-25T01:41:34.256Z,102187.97
2023-05-25T01:44:00.938Z,102183.69
2023-05-25T01:46:37.870Z,102186.22
2023-05-25T01:49:19.758Z,102177.97
2023-05-25T01:52:22.401Z,102182.66
2023-05-25T01:54:53.461Z,102178.59
2023-05-25T01:57:20.941Z,102180.00
2023-05-25T01:59:48.206Z,102180.66
2023-05-25T02:02:16.613Z,102187.63
2023-05-25T02:04:44.114Z,102187.47
2023-05-25T02:07:11.101Z,102190.63
2023-05-25T02:09:37.839Z,102198.44
2023-05-25T02:12:04.998Z,102190.06
2023-05-25T02:14:31.525Z,102184.16
2023-05-25T02:17:02.000Z,102188.66
2023-05-25T02:19:29.315Z,102194.50
2023-05-25T02:21:55.890Z,102193.47
2023-05-25T02:24:24.576Z,102190.88
2023-05-25T02:26:51.716Z,102188.00
2023-05-25T02:29:18.441Z,102188.69
2023-05-25T02:31:45.077Z,102196.75
2023-05-25T02:34:11.814Z,102189.78
2023-05-25T02:36:39.486Z,102189.53
2023-05-25T02:39:05.958Z,102195.53
2023-05-25T02:41:32.450Z,102200.22
2023-05-25T02:43:59.430Z,102191.16
2023-05-25T02:46:26.125Z,102187.84
2023-05-25T02:48:52.689Z,102193.84
2023-05-25T02:51:19.458Z,102197.31
2023-05-25T02:53:45.966Z,102199.63
2023-05-25T02:56:12.466Z,102207.25
2023-05-25T02:58:38.948Z,102207.13
2023-05-25T03:01:06.178Z,102209.06
2023-05-25T03:03:32.716Z,102208.19
2023-05-25T03:05:59.261Z,102216.63
2023-05-25T03:08:26.226Z,102213.66
2023-05-25T03:10:52.775Z,102216.69
2023-05-25T03:13:19.247Z,102217.56
2023-05-25T03:15:46.013Z,102225.75
2023-05-25T03:18:12.690Z,102227.00
2023-05-25T03:20:39.373Z,102229.59
2023-05-25T03:23:05.935Z,102222.50
2023-05-25T03:25:32.510Z,102228.13
2023-05-25T03:27:58.995Z,102234.28
2023-05-25T03:30:26.224Z,102238.25
2023-05-25T03:32:53.007Z,102227.97
2023-05-25T03:35:19.563Z,102233.56
2023-05-25T03:37:46.080Z,102230.41
2023-05-25T03:40:12.792Z,102236.03
2023-05-25T03:42:39.316Z,102242.69
2023-05-25T03:45:08.959Z,102239.16
2023-05-25T03:47:36.708Z,102238.63
2023-05-25T03:50:04.584Z,102250.06
2023-05-25T03:52:31.153Z,102241.66
2023-05-25T03:54:57.730Z,102244.28
2023-05-25T03:57:24.364Z,102242.28
2023-05-25T03:59:50.911Z,102243.16
2023-05-25T04:02:17.610Z,102239.06
2023-05-25T04:04:45.267Z,102239.00
2023-05-25T04:07:12.482Z,102247.16
2023-05-25T04:09:39.022Z,102250.81
2023-05-25T04:12:05.825Z,102254.66
2023-05-25T04:14:32.331Z,102240.47
2023-05-25T04:16:58.856Z,102243.97
2023-05-25T04:19:25.402Z,102248.72
2023-05-25T04:21:51.896Z,102247.63
2023-05-25T04:24:18.373Z,102246.19
2023-05-25T04:26:46.244Z,102245.31
2023-05-25T04:29:13.708Z,102244.81
2023-05-25T04:31:41.189Z,102246.19
2023-05-25T04:34:09.716Z,102233.13
2023-05-25T04:36:38.674Z,102251.97
2023-05-25T04:39:05.788Z,102249.19
2023-05-25T04:41:33.925Z,102253.91
2023-05-25T04:46:31.765Z,102249.47
2023-05-25T04:48:58.342Z,102255.53
2023-05-25T04:51:25.027Z,102257.50
2023-05-25T04:53:51.581Z,102258.78
2023-05-25T04:56:18.084Z,102265.50
2023-05-25T04:58:44.593Z,102262.56
2023-05-25T05:01:11.294Z,102264.03
2023-05-25T05:03:38.157Z,102265.50
2023-05-25T05:06:04.798Z,102271.59
2023-05-25T05:08:31.466Z,102268.69
2023-05-25T05:10:57.950Z,102263.41
2023-05-25T05:13:24.517Z,102271.91
2023-05-25T05:15:51.508Z,102271.38
2023-05-25T05:18:18.081Z,102282.59
2023-05-25T05:20:44.885Z,102275.97
2023-05-25T05:23:11.688Z,102279.47
2023-05-25T05:25:38.456Z,102277.91
2023-05-25T05:28:05.075Z,102277.66
2023-05-25T05:30:31.584Z,102285.53
2023-05-25T05:32:58.220Z,102290.06
2023-05-25T05:35:24.891Z,102285.00
2023-05-25T05:37:51.410Z,102286.28
2023-05-25T05:40:18.528Z,102298.03
2023-05-25T05:42:45.111Z,102292.59
2023-05-25T05:45:11.694Z,102292.94
2023-05-25T05:47:38.243Z,102300.94
2023-05-25T05:50:05.708Z,102292.94
2023-05-25T05:52:32.238Z,102299.81
2023-05-25T05:54:58.722Z,102282.97
2023-05-25T05:57:25.342Z,102292.91
2023-05-25T05:59:51.834Z,102295.75
2023-05-25T06:02:18.412Z,102307.28
2023-05-25T06:04:44.945Z,102302.22
2023-05-25T06:07:11.590Z,102301.25
2023-05-25T06:09:38.065Z,102315.06
2023-05-25T06:12:04.747Z,102316.44
2023-05-25T06:14:31.248Z,102311.72
2023-05-25T06:16:58.394Z,102309.38
2023-05-25T06:19:24.941Z,102322.00
2023-05-25T06:21:51.453Z,102315.78
2023-05-25T06:24:17.965Z,102314.53
2023-05-25T06:26:44.464Z,102314.47
2023-05-25T06:29:11.073Z,102305.66
2023-05-25T06:31:37.624Z,102311.97
2023-05-25T06:34:04.159Z,102312.69
2023-05-25T06:36:32.197Z,102304.22
2023-05-25T06:38:58.828Z,102310.41
2023-05-25T06:41:25.398Z,102304.88
2023-05-25T06:43:51.913Z,102316.75
2023-05-25T06:46:18.783Z,102309.63
2023-05-25T06:48:46.135Z,102303.66
2023-05-25T06:51:13.032Z,102308.84
2023-05-25T06:53:42.548Z,102311.31
2023-05-25T06:56:09.048Z,102316.97
2023-05-25T06:58:35.658Z,102323.06
2023-05-25T07:01:02.605Z,102308.78
2023-05-25T07:03:29.202Z,102315.84
2023-05-25T07:05:55.824Z,102314.59
2023-05-25T07:08:22.352Z,102322.69
2023-05-25T07:10:50.190Z,102329.97
2023-05-25T07:13:17.191Z,102331.41
2023-05-25T07:15:44.093Z,102332.06
2023-05-25T07:18:12.667Z,102322.28
2023-05-25T07:20:42.640Z,102335.81
2023-05-25T07:23:12.779Z,102331.50
2023-05-25T07:25:40.166Z,102339.66
2023-05-25T07:28:07.272Z,102319.63
2023-05-25T07:30:34.175Z,102329.22
2023-05-25T07:33:01.262Z,102335.44
2023-05-25T07:35:27.831Z,102341.03
2023-05-25T07:38:02.336Z,102341.34
2023-05-25T07:40:28.917Z,102350.66
2023-05-25T07:42:55.596Z,102335.84
2023-05-25T07:45:22.541Z,102334.13
2023-05-25T07:47:49.164Z,102339.44
2023-05-25T07:50:16.033Z,102336.63
2023-05-25T07:52:42.705Z,102333.34
2023-05-25T07:55:09.844Z,102338.94
2023-05-25T07:57:36.724Z,102339.63
2023-05-25T08:00:06.363Z,102336.81
2023-05-25T08:02:33.044Z,102338.78
2023-05-25T08:05:04.133Z,102349.06
2023-05-25T08:07:31.271Z,102342.00
2023-05-25T08:09:57.757Z,102339.16
2023-05-25T08:12:38.555Z,102350.53
2023-05-25T08:15:10.761Z,102361.47
2023-05-25T08:17:37.275Z,102353.34
2023-05-25T08:20:06.424Z,102361.69
2023-05-25T08:22:32.971Z,102359.50
2023-05-25T08:24:59.495Z,102368.66
2023-05-25T08:27:26.002Z,102367.41
2023-05-25T08:29:52.544Z,102373.41
2023-05-25T08:32:19.010Z,102371.34
2023-05-25T08:34:45.591Z,102383.47
2023-05-25T08:37:12.134Z,102379.97
2023-05-25T08:39:38.681Z,102379.97
2023-05-25T08:42:07.085Z,102373.44
2023-05-25T08:44:36.178Z,102363.78
2023-05-25T08:47:07.182Z,102380.00
2023-05-25T08:49:41.409Z,102378.69
2023-05-25T08:52:11.004Z,102381.47
2023-05-25T08:54:37.889Z,102378.19
2023-05-25T08:57:12.399Z,102372.59
2023-05-25T08:59:45.088Z,102376.31
2023-05-25T09:02:21.829Z,102386.03
2023-05-25T09:04:48.480Z,102375.03
2023-05-25T09:07:15.368Z,102388.56
2023-05-25T09:09:42.453Z,102396.47
2023-05-25T09:12:09.360Z,102390.56
2023-05-25T09:14:37.809Z,102396.72
2023-05-25T09:17:04.846Z,102386.50
2023-05-25T09:19:31.336Z,102390.31
2023-05-25T09:22:07.100Z,102385.38
2023-05-25T09:24:41.479Z,102386.31
2023-05-25T09:27:11.489Z,102383.66
2023-05-25T09:29:38.162Z,102389.47
2023-05-25T09:32:08.624Z,102388.50
2023-05-25T09:34:35.456Z,102395.81
2023-05-25T09:37:14.822Z,102397.34
2023-05-25T09:39:42.272Z,102407.94
2023-05-25T09:42:09.735Z,102400.69
2023-05-25T09:44:36.289Z,102400.16
2023-05-25T09:47:03.415Z,102398.47
2023-05-25T09:49:29.983Z,102388.56
2023-05-25T09:51:56.585Z,102388.59
2023-05-25T09:54:23.452Z,102400.09
2023-05-25T09:56:50.002Z,102401.56
2023-05-25T09:59:16.531Z,102389.47
2023-05-25T10:01:44.848Z,102394.72
2023-05-25T10:04:11.462Z,102392.28
2023-05-25T10:06:39.008Z,102399.09
2023-05-25T10:09:06.872Z,102394.53
2023-05-25T10:11:37.370Z,102397.13
2023-05-25T10:14:07.484Z,102390.50
2023-05-25T10:16:34.785Z,102394.59
2023-05-25T10:19:06.761Z,102398.00
2023-05-25T10:21:33.677Z,102392.28
2023-05-25T10:24:15.411Z,102390.47
2023-05-25T10:26:46.301Z,102394.03
2023-05-25T10:29:13.140Z,102391.31
2023-05-25T10:31:40.057Z,102386.06
2023-05-25T10:34:06.702Z,102389.59
2023-05-25T10:36:33.745Z,102394.03
2023-05-25T10:39:00.825Z,102386.09
2023-05-25T10:41:27.971Z,102389.63
2023-05-25T10:43:55.261Z,102395.81
2023-05-25T10:46:22.160Z,102391.31
2023-05-25T10:48:51.862Z,102392.28
2023-05-25T10:51:22.118Z,102397.47
2023-05-25T10:53:59.839Z,102399.09
2023-05-25T10:56:26.470Z,102381.66
2023-05-25T10:58:53.707Z,102379.00
2023-05-25T11:01:20.348Z,102389.63
2023-05-25T11:03:46.922Z,102390.50
2023-05-25T11:06:18.438Z,102387.63
2023-05-25T11:08:56.214Z,102380.59
2023-05-25T11:11:23.337Z,102384.22
2023-05-25T11:13:50.503Z,102395.81
2023-05-25T11:16:20.906Z,102383.00
2023-05-25T11:18:58.019Z,102369.84
2023-05-25T11:21:27.645Z,102374.44
2023-05-25T11:23:55.523Z,102378.09
2023-05-25T11:26:23.435Z,102379.72
2023-05-25T11:28:54.051Z,102371.66
2023-05-25T11:31:35.244Z,102375.88
2023-05-25T11:34:05.803Z,102376.09
2023-05-25T11:36:35.343Z,102373.75
2023-05-25T11:39:06.631Z,102369.72
2023-05-25T11:41:36.584Z,102367.31
2023-05-25T11:44:07.017Z,102367.59
2023-05-25T11:46:34.876Z,102362.16
2023-05-25T11:49:01.772Z,102362.34
2023-05-25T11:51:30.520Z,102374.16
2023-05-25T11:53:57.210Z,102371.75
2023-05-25T11:56:34.158Z,102382.16
2023-05-25T11:59:02.402Z,102361.44
2023-05-25T12:01:31.920Z,102354.19
2023-05-25T12:03:58.986Z,102355.97
2023-05-25T12:06:40.219Z,102365.56
2023-05-25T12:09:11.979Z,102361.47
2023-05-25T12:11:38.803Z,102354.53
2023-05-25T12:14:07.054Z,102363.66
2023-05-25T12:16:35.172Z,102359.16
2023-05-25T12:19:02.043Z,102360.53
2023-05-25T12:21:28.672Z,102358.63
2023-05-25T12:23:55.274Z,102352.97
2023-05-25T12:26:21.807Z,102348.00
2023-05-25T12:29:17.855Z,102347.63
2023-05-25T12:31:44.428Z,102342.34
2023-05-25T12:34:29.199Z,102334.78
2023-05-25T12:36:56.890Z,102335.03
2023-05-25T12:39:29.573Z,102342.97
2023-05-25T12:41:57.322Z,102338.16
2023-05-25T12:44:35.392Z,102329.13
2023-05-25T12:47:20.867Z,102331.09
2023-05-25T12:49:51.322Z,102327.97
2023-05-25T12:52:34.713Z,102318.09
2023-05-25T12:55:27.361Z,102320.91
2023-05-25T12:57:58.752Z,102317.25
2023-05-25T13:00:32.213Z,102324.72
2023-05-25T13:02:59.564Z,102327.81
2023-05-25T13:05:28.075Z,102324.88
2023-05-25T13:07:56.021Z,102332.50
2023-05-25T13:10:23.067Z,102324.31
2023-05-25T13:12:50.935Z,102319.38
2023-05-25T13:15:22.045Z,102328.56
2023-05-25T13:17:52.294Z,102327.41
2023-05-25T13:20:21.238Z,102321.06
2023-05-25T13:22:49.758Z,102320.56
2023-05-25T13:25:16.727Z,102324.63
2023-05-25T13:27:52.897Z,102322.47
2023-05-25T13:30:21.956Z,102314.97
2023-05-25T13:32:51.435Z,102323.38
2023-05-25T13:35:24.013Z,102326.16
2023-05-25T13:37:51.377Z,102309.06
2023-05-25T13:40:18.368Z,102314.88
2023-05-25T13:42:44.863Z,102308.22
2023-05-25T13:45:11.481Z,102309.84
2023-05-25T13:47:38.130Z,102311.81
2023-05-25T13:50:05.430Z,102307.09
2023-05-25T13:52:32.130Z,102304.38
2023-05-25T13:54:58.638Z,102311.31
2023-05-25T13:57:25.116Z,102307.06
2023-05-25T13:59:51.668Z,102299.00
2023-05-25T14:02:18.169Z,102303.78
2023-05-25T14:04:44.711Z,102304.84
2023-05-25T14:07:11.343Z,102303.53
2023-05-25T14:09:37.973Z,102301.53
2023-05-25T14:12:04.847Z,102299.44
2023-05-25T14:14:32.819Z,102299.94
2023-05-25T14:17:00.512Z,102312.13
2023-05-25T14:19:27.339Z,102303.16
2023-05-25T14:22:11.229Z,102295.50
2023-05-25T14:24:39.805Z,102304.16
2023-05-25T14:27:07.418Z,102296.59
2023-05-25T14:29:34.482Z,102304.81
2023-05-25T14:32:01.394Z,102303.81
2023-05-25T14:34:28.758Z,102299.91
2023-05-25T14:36:55.389Z,102301.09
2023-05-25T14:39:21.904Z,102310.56
2023-05-25T14:41:48.422Z,102307.72
2023-05-25T14:44:14.983Z,102303.91
2023-05-25T14:46:41.551Z,102309.53
2023-05-25T14:49:08.093Z,102307.00
2023-05-25T14:51:34.630Z,102304.88
2023-05-25T14:54:03.533Z,102298.81
2023-05-25T14:56:30.050Z,102306.59
2023-05-25T14:58:56.560Z,102307.66
2023-05-25T15:01:25.214Z,102306.00
2023-05-25T15:03:52.320Z,102314.13
2023-05-25T15:06:19.037Z,102309.97
2023-05-25T15:08:45.523Z,102305.53
2023-05-25T15:11:12.081Z,102303.69
2023-05-25T15:13:40.660Z,102306.38
2023-05-25T15:16:10.937Z,102309.03
2023-05-25T15:18:37.454Z,102291.25
2023-05-25T15:21:04.280Z,102288.06
2023-05-25T15:23:30.758Z,102290.66
2023-05-25T15:25:57.444Z,102290.19
2023-05-25T15:28:23.956Z,102292.25
2023-05-25T15:30:50.457Z,102285.19
2023-05-25T15:33:17.016Z,102287.66
2023-05-25T15:35:43.753Z,102293.09
2023-05-25T15:38:10.429Z,102292.09
2023-05-25T15:40:37.179Z,102292.34
2023-05-25T15:43:03.848Z,102283.84
2023-05-25T15:45:30.563Z,102298.03
2023-05-25T15:47:57.238Z,102293.44
2023-05-25T15:50:23.820Z,102296.53
2023-05-25T15:52:50.331Z,102289.88
2023-05-25T15:55:16.852Z,102296.19
2023-05-25T15:57:43.359Z,102301.97
2023-05-25T16:00:10.518Z,102289.94
2023-05-25T16:02:37.085Z,102295.59
2023-05-25T16:05:06.052Z,102285.38
2023-05-25T16:07:33.454Z,102289.81
2023-05-25T16:09:59.981Z,102296.81
2023-05-25T16:12:27.112Z,102286.91
2023-05-25T16:14:54.024Z,102285.94
2023-05-25T16:17:20.718Z,102292.50
2023-05-25T16:19:47.421Z,102296.81
2023-05-25T16:22:13.916Z,102294.28
2023-05-25T16:24:40.497Z,102293.38
2023-05-25T16:27:07.122Z,102299.53
2023-05-25T16:29:33.759Z,102298.50
2023-05-25T16:32:00.417Z,102298.81
2023-05-25T16:34:27.046Z,102295.03
2023-05-25T16:36:53.545Z,102292.59
2023-05-25T16:39:21.384Z,102298.41
2023-05-25T16:41:50.667Z,102290.38
2023-05-25T16:44:17.488Z,102288.22
2023-05-25T16:46:44.062Z,102290.00
2023-05-25T16:49:10.710Z,102298.75
2023-05-25T16:51:37.866Z,102302.38
2023-05-25T16:54:04.435Z,102297.09
2023-05-25T16:56:31.343Z,102298.81
2023-05-25T16:58:57.814Z,102301.41
2023-05-25T17:01:24.362Z,102304.09
2023-05-25T17:03:52.714Z,102290.88
2023-05-25T17:06:19.350Z,102294.38
2023-05-25T17:08:45.849Z,102300.56
2023-05-25T17:11:12.380Z,102298.78
2023-05-25T17:13:38.961Z,102302.34
2023-05-25T17:16:05.810Z,102298.75
2023-05-25T17:18:32.344Z,102300.53
2023-05-25T17:20:58.943Z,102311.13
2023-05-25T17:23:25.423Z,102312.88
2023-05-25T17:25:51.949Z,102312.94
2023-05-25T17:28:18.594Z,102309.28
2023-05-25T17:30:45.117Z,102309.28
2023-05-25T17:33:11.749Z,102304.00
2023-05-25T17:35:38.281Z,102306.63
2023-05-25T17:38:04.837Z,102304.03
2023-05-25T17:40:31.458Z,102310.09
2023-05-25T17:42:58.023Z,102310.84
2023-05-25T17:45:24.650Z,102314.19
2023-05-25T17:47:51.300Z,102314.25
2023-05-25T17:50:17.823Z,102314.44
2023-05-25T17:52:44.349Z,102310.47
2023-05-25T17:55:10.867Z,102320.38
2023-05-25T17:57:37.394Z,102328.28
2023-05-25T18:00:04.723Z,102337.06
2023-05-25T18:02:31.466Z,102336.13
2023-05-25T18:04:58.131Z,102333.47
2023-05-25T18:07:25.286Z,102330.81
2023-05-25T18:09:52.316Z,102343.78
2023-05-25T18:12:18.920Z,102337.97
2023-05-25T18:14:45.565Z,102361.84
2023-05-25T18:17:12.340Z,102347.31
2023-05-25T18:19:38.961Z,102351.47
2023-05-25T18:22:06.150Z,102352.06
2023-05-25T18:24:33.265Z,102355.44
2023-05-25T18:27:03.679Z,102353.41
2023-05-25T18:29:30.955Z,102351.78
2023-05-25T18:31:57.872Z,102357.91
2023-05-25T18:34:24.419Z,102348.91
2023-05-25T18:36:50.947Z,102356.78
2023-05-25T18:39:17.433Z,102366.53
2023-05-25T18:41:45.251Z,102365.34
2023-05-25T18:44:12.625Z,102373.78
2023-05-25T18:46:41.421Z,102372.59
2023-05-25T18:49:08.049Z,102374.00
2023-05-25T18:51:34.570Z,102380.75
2023-05-25T18:54:01.872Z,102373.69
2023-05-25T18:56:28.368Z,102385.44
2023-05-25T18:58:57.034Z,102383.03
2023-05-25T19:01:25.669Z,102379.00
2023-05-25T19:03:52.601Z,102385.38
2023-05-25T19:06:19.406Z,102385.22
2023-05-25T19:08:45.882Z,102391.38
2023-05-25T19:11:12.696Z,102395.22
2023-05-25T19:13:39.219Z,102401.50
2023-05-25T19:16:06.598Z,102399.34
2023-05-25T19:18:33.128Z,102398.06
2023-05-25T19:21:02.133Z,102393.75
2023-05-25T19:23:28.747Z,102410.72
2023-05-25T19:25:55.416Z,102415.44
2023-05-25T19:28:21.944Z,102409.09
2023-05-25T19:30:48.451Z,102403.72
2023-05-25T19:33:15.076Z,102403.47
2023-05-25T19:35:41.703Z,102409.16
2023-05-25T19:38:08.267Z,102411.84
2023-05-25T19:40:34.831Z,102410.16
2023-05-25T19:43:01.451Z,102416.88
2023-05-25T19:45:28.048Z,102417.97
2023-05-25T19:47:54.816Z,102420.16
2023-05-25T19:50:21.500Z,102424.84
2023-05-25T19:52:48.144Z,102426.97
2023-05-25T19:55:14.665Z,102431.00
2023-05-25T19:57:41.233Z,102428.41
2023-05-25T20:00:17.553Z,102439.06
2023-05-25T20:02:52.641Z,102440.09
2023-05-25T20:05:19.847Z,102437.00
2023-05-25T20:07:46.659Z,102443.19
2023-05-25T20:10:13.598Z,102451.50
2023-05-25T20:12:40.330Z,102446.53
2023-05-25T20:15:07.163Z,102440.94
2023-05-25T20:17:33.777Z,102448.81
2023-05-25T20:20:00.884Z,102455.50
2023-05-25T20:22:30.426Z,102459.13
2023-05-25T20:24:58.467Z,102461.56
2023-05-25T20:27:25.358Z,102471.59
2023-05-25T20:29:51.934Z,102470.59
2023-05-25T20:32:19.197Z,102464.72
2023-05-25T20:34:46.130Z,102471.31
2023-05-25T20:37:12.900Z,102472.16
2023-05-25T20:39:40.338Z,102471.84
2023-05-25T20:42:07.754Z,102480.53
2023-05-25T20:44:37.725Z,102472.66
2023-05-25T20:47:05.295Z,102478.78
2023-05-25T20:49:32.432Z,102488.75
2023-05-25T20:51:59.620Z,102478.84
2023-05-25T20:54:26.885Z,102485.53
2023-05-25T20:56:53.603Z,102487.94
2023-05-25T20:59:20.825Z,102479.56
2023-05-25T21:01:50.834Z,102486.47
2023-05-25T21:04:18.152Z,102484.19
2023-05-25T21:06:45.837Z,102490.19
2023-05-25T21:09:13.288Z,102482.47
2023-05-25T21:11:40.433Z,102491.25
2023-05-25T21:14:07.727Z,102484.16
2023-05-25T21:16:35.310Z,102487.22
2023-05-25T21:19:02.556Z,102486.38
2023-05-25T21:21:33.976Z,102492.94
2023-05-25T21:24:04.180Z,102486.97
2023-05-25T21:26:31.288Z,102491.78
2023-05-25T21:28:58.846Z,102491.75
2023-05-25T21:31:25.691Z,102483.53
2023-05-25T21:33:53.219Z,102492.47
2023-05-25T21:36:20.736Z,102491.78
2023-05-25T21:38:48.335Z,102493.72
2023-05-25T21:41:14.856Z,102499.75
2023-05-25T21:43:41.415Z,102502.56
2023-05-25T21:46:07.939Z,102506.13
2023-05-25T21:48:34.531Z,102503.94
2023-05-25T21:51:01.425Z,102501.94
2023-05-25T21:53:34.093Z,102505.13
2023-05-25T21:56:00.594Z,102510.06
2023-05-25T21:58:27.118Z,102515.06
2023-05-25T22:00:53.638Z,102522.06
2023-05-25T22:03:20.186Z,102518.16
2023-05-25T22:05:46.890Z,102522.72
2023-05-25T22:08:13.563Z,102515.88
2023-05-25T22:10:40.065Z,102516.50
2023-05-25T22:13:07.213Z,102516.91
2023-05-25T22:15:34.361Z,102517.09
2023-05-25T22:18:01.626Z,102521.00
2023-05-25T22:20:28.275Z,102519.78
2023-05-25T22:22:54.794Z,102514.44
2023-05-25T22:25:21.446Z,102515.47
2023-05-25T22:27:48.005Z,102524.56
2023-05-25T22:30:14.606Z,102519.69
2023-05-25T22:32:41.145Z,102515.56
2023-05-25T22:35:08.137Z,102527.47
2023-05-25T22:37:34.684Z,102519.09
2023-05-25T22:40:01.158Z,102525.63
2023-05-25T22:42:27.728Z,102517.97
2023-05-25T22:44:54.194Z,102525.97
2023-05-25T22:47:20.776Z,102531.28
2023-05-25T22:49:47.302Z,102530.38
2023-05-25T22:52:13.837Z,102528.94
2023-05-25T22:54:40.377Z,102529.16
2023-05-25T22:57:09.134Z,102530.09
2023-05-25T22:59:35.849Z,102529.66
2023-05-25T23:02:02.481Z,102527.69
2023-05-25T23:04:29.018Z,102529.78
2023-05-25T23:06:55.542Z,102529.44
2023-05-25T23:09:22.114Z,102532.69
2023-05-25T23:11:48.625Z,102535.38
2023-05-25T23:14:15.122Z,102534.44
2023-05-25T23:16:41.799Z,102535.63
2023-05-25T23:19:08.569Z,102532.06
2023-05-25T23:21:35.209Z,102537.19
2023-05-25T23:24:01.784Z,102538.81
2023-05-25T23:26:28.308Z,102542.09
2023-05-25T23:28:54.834Z,102546.22
2023-05-25T23:31:21.419Z,102552.81
2023-05-25T23:33:47.915Z,102542.97
2023-05-25T23:36:15.026Z,102543.19
2023-05-25T23:38:41.966Z,102549.38
2023-05-25T23:41:08.467Z,102555.72
2023-05-25T23:43:35.018Z,102549.91
2023-05-25T23:46:02.383Z,102551.50
2023-05-25T23:48:29.051Z,102550.69
2023-05-25T23:50:55.618Z,102547.69
2023-05-25T23:53:22.289Z,102557.81
2023-05-25T23:55:48.749Z,102561.25
2023-05-25T23:58:15.636Z,102564.44
